createdAt,value
2022-12-11T00:00:29.129Z,100619.19
2022-12-11T00:03:16.408Z,100626.88
2022-12-11T00:06:05.855Z,100620.94
2022-12-11T00:08:53.420Z,100627.63
2022-12-11T00:11:38.164Z,100624.63
2022-12-11T00:14:23.441Z,100627.44
2022-12-11T00:17:08.294Z,100634.63
2022-12-11T00:19:53.434Z,100625.16
2022-12-11T00:22:38.328Z,100625.88
2022-12-11T00:25:23.193Z,100625.88
2022-12-11T00:28:08.251Z,100622.59
2022-12-11T00:30:53.252Z,100619.06
2022-12-11T00:33:38.446Z,100625.69
2022-12-11T00:36:25.914Z,100617.63
2022-12-11T00:39:11.038Z,100621.44
2022-12-11T00:41:56.205Z,100619.91
2022-12-11T00:44:41.489Z,100620.66
2022-12-11T00:47:26.523Z,100612.97
2022-12-11T00:50:12.210Z,100626.47
2022-12-11T00:52:57.266Z,100613.97
2022-12-11T00:55:44.091Z,100612.19
2022-12-11T00:58:29.063Z,100605.13
2022-12-11T01:01:20.929Z,100617.00
2022-12-11T01:04:06.096Z,100610.81
2022-12-11T01:06:51.175Z,100616.41
2022-12-11T01:09:54.463Z,100615.81
2022-12-11T01:12:39.738Z,100616.78
2022-12-11T01:15:28.065Z,100610.91
2022-12-11T01:18:14.779Z,100612.81
2022-12-11T01:20:59.770Z,100608.66
2022-12-11T01:23:44.885Z,100606.84
2022-12-11T01:26:30.590Z,100617.69
2022-12-11T01:29:15.910Z,100611.81
2022-12-11T01:32:00.935Z,100608.84
2022-12-11T01:34:46.006Z,100604.47
2022-12-11T01:37:30.983Z,100602.91
2022-12-11T01:40:18.742Z,100606.63
2022-12-11T01:43:03.572Z,100616.31
2022-12-11T01:45:48.891Z,100607.03
2022-12-11T01:48:36.777Z,100606.84
2022-12-11T01:51:26.862Z,100604.00
2022-12-11T01:54:14.718Z,100598.22
2022-12-11T01:57:04.105Z,100593.94
2022-12-11T01:59:49.260Z,100593.84
2022-12-11T02:02:33.986Z,100589.72
2022-12-11T02:05:19.027Z,100585.47
2022-12-11T02:08:04.884Z,100578.03
2022-12-11T02:11:04.062Z,100574.78
2022-12-11T02:14:05.392Z,100575.31
2022-12-11T02:17:01.154Z,100575.50
2022-12-11T02:20:10.859Z,100579.56
2022-12-11T02:23:22.981Z,100584.47
2022-12-11T02:26:18.665Z,100585.88
2022-12-11T02:29:12.250Z,100584.91
2022-12-11T02:32:03.263Z,100587.72
2022-12-11T02:35:20.799Z,100587.50
2022-12-11T02:38:10.639Z,100576.06
2022-12-11T02:40:58.325Z,100581.38
2022-12-11T02:43:44.411Z,100579.34
2022-12-11T02:46:31.187Z,100575.34
2022-12-11T02:49:16.747Z,100573.06
2022-12-11T02:52:05.064Z,100572.41
2022-12-11T02:54:53.825Z,100570.25
2022-12-11T02:57:59.864Z,100575.28
2022-12-11T03:00:46.092Z,100570.44
2022-12-11T03:03:31.117Z,100576.41
2022-12-11T03:06:21.602Z,100570.44
2022-12-11T03:09:07.325Z,100573.06
2022-12-11T03:11:52.444Z,100571.59
2022-12-11T03:14:40.326Z,100568.69
2022-12-11T03:17:33.947Z,100576.50
2022-12-11T03:20:40.513Z,100561.34
2022-12-11T03:23:35.740Z,100568.13
2022-12-11T03:26:22.720Z,100575.28
2022-12-11T03:29:20.515Z,100566.13
2022-12-11T03:32:11.071Z,100572.63
2022-12-11T03:35:03.865Z,100565.94
2022-12-11T03:37:52.141Z,100568.13
2022-12-11T03:40:40.126Z,100578.53
2022-12-11T03:43:28.480Z,100578.22
2022-12-11T03:46:15.244Z,100578.72
2022-12-11T03:49:05.695Z,100576.50
2022-12-11T03:51:53.577Z,100577.56
2022-12-11T03:54:41.163Z,100571.44
2022-12-11T03:57:31.132Z,100572.91
2022-12-11T04:00:18.546Z,100569.50
2022-12-11T04:03:13.854Z,100567.22
2022-12-11T04:05:59.350Z,100563.03
2022-12-11T04:08:44.610Z,100554.19
2022-12-11T04:11:35.048Z,100554.06
2022-12-11T04:14:39.055Z,100553.97
2022-12-11T04:17:42.731Z,100545.00
2022-12-11T04:20:46.924Z,100545.53
2022-12-11T04:23:50.487Z,100551.59
2022-12-11T04:26:35.493Z,100548.19
2022-12-11T04:29:20.513Z,100545.09
2022-12-11T04:32:05.788Z,100548.84
2022-12-11T04:34:50.626Z,100549.38
2022-12-11T04:37:36.035Z,100545.53
2022-12-11T04:40:21.883Z,100545.63
2022-12-11T04:43:06.666Z,100543.22
2022-12-11T04:46:01.024Z,100541.56
2022-12-11T04:48:48.445Z,100544.34
2022-12-11T04:51:35.111Z,100538.94
2022-12-11T04:54:20.225Z,100535.28
2022-12-11T04:57:05.375Z,100542.94
2022-12-11T04:59:50.482Z,100543.22
2022-12-11T05:02:36.940Z,100541.06
2022-12-11T05:05:22.021Z,100546.16
2022-12-11T05:08:08.066Z,100537.84
2022-12-11T05:10:57.315Z,100534.41
2022-12-11T05:13:42.928Z,100529.59
2022-12-11T05:16:28.189Z,100522.94
2022-12-11T05:19:13.404Z,100526.19
2022-12-11T05:21:58.544Z,100517.72
2022-12-11T05:24:44.104Z,100523.84
2022-12-11T05:27:28.885Z,100519.75
2022-12-11T05:30:13.914Z,100531.97
2022-12-11T05:32:58.924Z,100527.19
2022-12-11T05:35:48.366Z,100523.34
2022-12-11T05:38:33.631Z,100521.25
2022-12-11T05:41:21.962Z,100515.00
2022-12-11T05:44:07.199Z,100521.69
2022-12-11T05:46:52.451Z,100524.72
2022-12-11T05:49:37.222Z,100527.22
2022-12-11T05:52:22.391Z,100519.19
2022-12-11T05:55:09.697Z,100504.06
2022-12-11T05:57:54.903Z,100515.13
2022-12-11T06:00:43.187Z,100520.34
2022-12-11T06:03:28.199Z,100518.66
2022-12-11T06:06:13.512Z,100510.75
2022-12-11T06:09:00.410Z,100520.66
2022-12-11T06:11:45.393Z,100514.69
2022-12-11T06:14:30.241Z,100514.25
2022-12-11T06:17:15.249Z,100510.44
2022-12-11T06:20:00.391Z,100503.00
2022-12-11T06:22:45.402Z,100510.44
2022-12-11T06:25:30.746Z,100510.69
2022-12-11T06:28:17.442Z,100512.00
2022-12-11T06:31:02.228Z,100509.97
2022-12-11T06:33:47.501Z,100514.88
2022-12-11T06:36:32.609Z,100518.25
2022-12-11T06:39:17.921Z,100505.09
2022-12-11T06:42:02.970Z,100507.28
2022-12-11T06:44:48.015Z,100504.25
2022-12-11T06:47:33.140Z,100503.66
2022-12-11T06:50:17.996Z,100505.75
2022-12-11T06:53:03.110Z,100509.59
2022-12-11T06:55:48.101Z,100518.97
2022-12-11T06:58:34.965Z,100515.66
2022-12-11T07:01:23.410Z,100518.25
2022-12-11T07:04:09.071Z,100521.19
2022-12-11T07:06:53.954Z,100517.28
2022-12-11T07:09:40.686Z,100528.34
2022-12-11T07:12:25.477Z,100526.91
2022-12-11T07:15:11.113Z,100516.03
2022-12-11T07:17:56.159Z,100523.44
2022-12-11T07:20:41.254Z,100528.41
2022-12-11T07:23:28.281Z,100525.63
2022-12-11T07:26:15.910Z,100520.09
2022-12-11T07:29:01.130Z,100527.50
2022-12-11T07:31:46.385Z,100516.16
2022-12-11T07:34:31.180Z,100522.09
2022-12-11T07:37:16.210Z,100513.34
2022-12-11T07:40:01.189Z,100516.16
2022-12-11T07:42:46.541Z,100513.25
2022-12-11T07:45:31.997Z,100519.50
2022-12-11T07:48:16.829Z,100518.13
2022-12-11T07:51:28.517Z,100512.53
2022-12-11T07:54:16.705Z,100510.84
2022-12-11T07:57:01.538Z,100512.41
2022-12-11T07:59:46.565Z,100509.91
2022-12-11T08:02:37.014Z,100515.75
2022-12-11T08:05:22.606Z,100523.97
2022-12-11T08:08:07.695Z,100515.13
2022-12-11T08:10:53.199Z,100517.75
2022-12-11T08:13:37.993Z,100521.19
2022-12-11T08:16:23.241Z,100516.19
2022-12-11T08:19:08.537Z,100514.31
2022-12-11T08:21:53.731Z,100506.91
2022-12-11T08:24:38.985Z,100512.66
2022-12-11T08:27:23.696Z,100511.28
2022-12-11T08:30:09.449Z,100518.91
2022-12-11T08:32:54.258Z,100508.44
2022-12-11T08:35:39.841Z,100518.94
2022-12-11T08:38:25.706Z,100513.19
2022-12-11T08:41:13.306Z,100511.31
2022-12-11T08:44:00.115Z,100510.63
2022-12-11T08:46:45.539Z,100516.63
2022-12-11T08:49:34.327Z,100520.66
2022-12-11T08:52:19.676Z,100516.69
2022-12-11T08:55:05.343Z,100522.81
2022-12-11T08:57:50.681Z,100525.56
2022-12-11T09:00:36.088Z,100520.25
2022-12-11T09:03:21.256Z,100529.59
2022-12-11T09:06:08.451Z,100522.81
2022-12-11T09:08:55.898Z,100530.31
2022-12-11T09:11:40.923Z,100528.56
2022-12-11T09:14:25.898Z,100524.19
2022-12-11T09:17:11.025Z,100516.00
2022-12-11T09:19:56.179Z,100522.94
2022-12-11T09:22:42.675Z,100525.59
2022-12-11T09:25:27.741Z,100526.97
2022-12-11T09:28:12.903Z,100516.69
2022-12-11T09:30:58.031Z,100519.63
2022-12-11T09:33:43.503Z,100522.50
2022-12-11T09:36:29.461Z,100510.69
2022-12-11T09:39:16.067Z,100518.91
2022-12-11T09:42:36.337Z,100516.41
2022-12-11T09:45:21.431Z,100515.44
2022-12-11T09:48:08.166Z,100515.44
2022-12-11T09:50:54.911Z,100522.22
2022-12-11T09:53:39.866Z,100519.22
2022-12-11T09:56:33.736Z,100518.06
2022-12-11T09:59:41.241Z,100513.28
2022-12-11T10:02:47.554Z,100510.16
2022-12-11T10:05:49.851Z,100505.44
2022-12-11T10:08:44.696Z,100505.56
2022-12-11T10:11:50.357Z,100493.78
2022-12-11T10:15:11.526Z,100488.44
2022-12-11T10:18:04.626Z,100480.50
2022-12-11T10:20:52.613Z,100477.09
2022-12-11T10:23:50.648Z,100480.00
2022-12-11T10:26:39.496Z,100478.97
2022-12-11T10:29:24.754Z,100478.44
2022-12-11T10:32:21.771Z,100475.72
2022-12-11T10:35:07.859Z,100469.88
2022-12-11T10:37:57.061Z,100472.78
2022-12-11T10:40:46.229Z,100479.81
2022-12-11T10:43:37.254Z,100466.34
2022-12-11T10:46:25.477Z,100453.81
2022-12-11T10:49:29.950Z,100454.13
2022-12-11T10:52:24.607Z,100452.88
2022-12-11T10:55:27.251Z,100441.25
2022-12-11T10:58:19.012Z,100435.38
2022-12-11T11:01:10.409Z,100436.22
2022-12-11T11:03:58.646Z,100443.28
2022-12-11T11:06:43.830Z,100439.41
2022-12-11T11:09:35.725Z,100433.28
2022-12-11T11:12:26.996Z,100432.00
2022-12-11T11:15:13.814Z,100434.53
2022-12-11T11:18:11.227Z,100430.34
2022-12-11T11:20:56.939Z,100431.50
2022-12-11T11:23:46.244Z,100423.56
2022-12-11T11:26:56.550Z,100429.53
2022-12-11T11:29:39.019Z,100415.34
2022-12-11T11:32:30.911Z,100412.66
2022-12-11T11:35:20.394Z,100418.63
2022-12-11T11:38:18.499Z,100411.34
2022-12-11T11:41:16.841Z,100413.38
2022-12-11T11:44:07.156Z,100410.13
2022-12-11T11:47:24.833Z,100410.84
2022-12-11T11:50:18.928Z,100405.41
2022-12-11T11:53:11.793Z,100406.47
2022-12-11T11:56:23.550Z,100405.09
2022-12-11T11:59:23.329Z,100409.63
2022-12-11T12:02:16.241Z,100401.44
2022-12-11T12:05:03.390Z,100405.19
2022-12-11T12:08:14.119Z,100404.97
2022-12-11T12:11:08.006Z,100394.19
2022-12-11T12:14:43.751Z,100394.66
2022-12-11T12:17:55.461Z,100398.16
2022-12-11T12:21:00.401Z,100388.69
2022-12-11T12:24:05.411Z,100384.47
2022-12-11T12:27:43.245Z,100383.66
2022-12-11T12:30:22.813Z,100380.06
2022-12-11T12:33:52.434Z,100379.66
2022-12-11T12:36:51.186Z,100379.06
2022-12-11T12:39:44.957Z,100365.91
2022-12-11T12:42:37.387Z,100367.19
2022-12-11T12:45:31.076Z,100365.28
2022-12-11T12:48:16.465Z,100372.81
2022-12-11T12:51:03.382Z,100364.88
2022-12-11T12:53:57.872Z,100372.34
2022-12-11T12:56:44.995Z,100365.22
2022-12-11T12:59:29.985Z,100368.59
2022-12-11T13:02:17.126Z,100371.66
2022-12-11T13:05:15.941Z,100363.63
2022-12-11T13:08:04.345Z,100367.22
2022-12-11T13:11:01.076Z,100374.34
2022-12-11T13:14:00.467Z,100368.44
2022-12-11T13:16:47.712Z,100365.66
2022-12-11T13:19:40.603Z,100366.31
2022-12-11T13:22:27.517Z,100364.66
2022-12-11T13:25:26.129Z,100360.81
2022-12-11T13:28:40.498Z,100364.81
2022-12-11T13:31:32.869Z,100354.28
2022-12-11T13:34:22.747Z,100360.22
2022-12-11T13:37:24.772Z,100358.19
2022-12-11T13:40:25.921Z,100365.31
2022-12-11T13:43:24.528Z,100364.50
2022-12-11T13:46:12.221Z,100371.16
2022-12-11T13:49:03.059Z,100379.50
2022-12-11T13:51:54.274Z,100377.31
2022-12-11T13:54:50.407Z,100383.47
2022-12-11T13:57:45.500Z,100381.91
2022-12-11T14:00:32.747Z,100384.34
2022-12-11T14:03:18.728Z,100387.28
2022-12-11T14:06:04.191Z,100385.50
2022-12-11T14:08:51.716Z,100381.34
2022-12-11T14:11:42.000Z,100383.03
2022-12-11T14:14:43.472Z,100382.56
2022-12-11T14:17:32.694Z,100386.63
2022-12-11T14:20:21.423Z,100385.28
2022-12-11T14:23:07.585Z,100383.84
2022-12-11T14:25:54.440Z,100391.28
2022-12-11T14:28:42.367Z,100394.69
2022-12-11T14:31:30.602Z,100391.91
2022-12-11T14:34:29.818Z,100396.97
2022-12-11T14:37:17.568Z,100397.19
2022-12-11T14:40:10.229Z,100396.97
2022-12-11T14:43:00.516Z,100399.47
2022-12-11T14:45:49.000Z,100400.88
2022-12-11T14:48:44.700Z,100403.28
2022-12-11T14:51:35.889Z,100404.13
2022-12-11T14:54:40.559Z,100404.97
2022-12-11T14:57:30.538Z,100406.75
2022-12-11T15:00:26.180Z,100405.06
2022-12-11T15:03:17.300Z,100403.06
2022-12-11T15:06:20.134Z,100407.25
2022-12-11T15:09:36.507Z,100402.88
2022-12-11T15:12:21.908Z,100404.13
2022-12-11T15:15:14.353Z,100405.41
2022-12-11T15:18:03.661Z,100402.88
2022-12-11T15:20:58.240Z,100408.84
2022-12-11T15:23:52.742Z,100411.78
2022-12-11T15:26:44.103Z,100408.44
2022-12-11T15:29:37.935Z,100406.03
2022-12-11T15:32:24.411Z,100406.88
2022-12-11T15:35:24.154Z,100414.09
2022-12-11T15:38:27.329Z,100420.44
2022-12-11T15:41:17.724Z,100412.72
2022-12-11T15:44:04.074Z,100421.16
2022-12-11T15:46:49.480Z,100417.44
2022-12-11T15:49:34.289Z,100424.03
2022-12-11T15:52:19.343Z,100425.38
2022-12-11T15:55:04.738Z,100418.38
2022-12-11T15:57:55.611Z,100427.47
2022-12-11T16:00:40.495Z,100420.81
2022-12-11T16:03:25.689Z,100420.28
2022-12-11T16:06:13.006Z,100422.19
2022-12-11T16:08:57.992Z,100422.81
2022-12-11T16:11:43.050Z,100420.56
2022-12-11T16:14:27.919Z,100428.53
2022-12-11T16:17:15.025Z,100430.28
2022-12-11T16:20:00.072Z,100423.31
2022-12-11T16:22:45.160Z,100423.72
2022-12-11T16:25:29.944Z,100423.94
2022-12-11T16:28:17.977Z,100423.13
2022-12-11T16:31:03.407Z,100420.41
2022-12-11T16:33:48.244Z,100422.38
2022-12-11T16:36:33.282Z,100413.81
2022-12-11T16:39:18.258Z,100415.69
2022-12-11T16:42:04.978Z,100419.78
2022-12-11T16:44:50.242Z,100416.91
2022-12-11T16:47:35.112Z,100417.66
2022-12-11T16:50:20.744Z,100419.66
2022-12-11T16:53:05.819Z,100417.88
2022-12-11T16:55:51.429Z,100410.25
2022-12-11T16:58:36.305Z,100412.03
2022-12-11T17:01:21.799Z,100415.06
2022-12-11T17:04:06.845Z,100411.53
2022-12-11T17:06:51.747Z,100414.47
2022-12-11T17:09:36.722Z,100409.84
2022-12-11T17:12:27.377Z,100411.75
2022-12-11T17:15:12.970Z,100409.03
2022-12-11T17:17:58.358Z,100407.16
2022-12-11T17:20:44.621Z,100405.69
2022-12-11T17:23:29.763Z,100409.34
2022-12-11T17:26:15.641Z,100399.66
2022-12-11T17:29:00.450Z,100407.38
2022-12-11T17:31:45.721Z,100408.41
2022-12-11T17:34:36.070Z,100408.91
2022-12-11T17:37:22.636Z,100406.13
2022-12-11T17:40:08.183Z,100411.34
2022-12-11T17:42:53.311Z,100414.19
2022-12-11T17:45:56.364Z,100411.69
2022-12-11T17:48:41.363Z,100413.16
2022-12-11T17:51:26.258Z,100416.81
2022-12-11T17:54:11.561Z,100416.38
2022-12-11T17:56:56.647Z,100411.16
2022-12-11T17:59:41.683Z,100411.16
2022-12-11T18:02:26.637Z,100410.13
2022-12-11T18:05:12.028Z,100408.47
2022-12-11T18:07:58.065Z,100407.94
2022-12-11T18:10:45.509Z,100401.16
2022-12-11T18:13:30.540Z,100411.41
2022-12-11T18:16:19.671Z,100403.16
2022-12-11T18:19:06.232Z,100413.97
2022-12-11T18:21:50.977Z,100420.16
2022-12-11T18:24:36.010Z,100420.16
2022-12-11T18:27:21.110Z,100432.31
2022-12-11T18:30:06.636Z,100426.59
2022-12-11T18:32:52.037Z,100432.72
2022-12-11T18:35:36.782Z,100436.19
2022-12-11T18:38:22.231Z,100436.41
2022-12-11T18:41:09.072Z,100439.53
2022-12-11T18:43:54.991Z,100439.22
2022-12-11T18:46:40.220Z,100437.44
2022-12-11T18:49:25.384Z,100431.50
2022-12-11T18:52:10.487Z,100427.84
2022-12-11T18:54:55.656Z,100427.97
2022-12-11T18:57:40.863Z,100420.47
2022-12-11T19:00:25.727Z,100418.38
2022-12-11T19:03:11.868Z,100434.31
2022-12-11T19:05:56.903Z,100431.09
2022-12-11T19:08:42.161Z,100431.94
2022-12-11T19:11:29.218Z,100433.41
2022-12-11T19:14:14.201Z,100428.47
2022-12-11T19:16:59.720Z,100421.28
2022-12-11T19:19:46.060Z,100428.16
2022-12-11T19:22:31.218Z,100431.09
2022-12-11T19:25:16.290Z,100426.06
2022-12-11T19:28:01.760Z,100427.38
2022-12-11T19:30:48.941Z,100424.78
2022-12-11T19:33:33.934Z,100428.75
2022-12-11T19:36:22.074Z,100416.69
2022-12-11T19:39:12.852Z,100423.47
2022-12-11T19:41:58.788Z,100414.91
2022-12-11T19:44:43.858Z,100421.91
2022-12-11T19:47:28.957Z,100415.53
2022-12-11T19:50:13.870Z,100423.34
2022-12-11T19:52:58.712Z,100421.31
2022-12-11T19:55:50.712Z,100425.25
2022-12-11T19:58:36.003Z,100417.00
2022-12-11T20:01:25.698Z,100417.50
2022-12-11T20:04:13.549Z,100415.75
2022-12-11T20:06:58.662Z,100413.97
2022-12-11T20:09:43.706Z,100411.75
2022-12-11T20:12:29.463Z,100418.97
2022-12-11T20:15:16.529Z,100424.66
2022-12-11T20:18:01.785Z,100425.69
2022-12-11T20:20:46.772Z,100428.81
2022-12-11T20:23:33.200Z,100430.19
2022-12-11T20:26:24.149Z,100422.63
2022-12-11T20:29:09.133Z,100425.13
2022-12-11T20:31:54.163Z,100427.53
2022-12-11T20:34:39.489Z,100418.06
2022-12-11T20:37:25.857Z,100418.38
2022-12-11T20:40:11.797Z,100420.03
2022-12-11T20:42:57.063Z,100417.53
2022-12-11T20:45:47.515Z,100411.16
2022-12-11T20:48:32.713Z,100413.88
2022-12-11T20:51:25.653Z,100418.69
2022-12-11T20:54:11.243Z,100416.69
2022-12-11T20:56:56.934Z,100416.69
2022-12-11T20:59:43.157Z,100424.19
2022-12-11T21:02:30.754Z,100413.69
2022-12-11T21:05:16.339Z,100421.06
2022-12-11T21:08:01.183Z,100419.19
2022-12-11T21:10:46.364Z,100416.59
2022-12-11T21:13:31.399Z,100421.59
2022-12-11T21:16:16.413Z,100431.28
2022-12-11T21:19:02.515Z,100420.34
2022-12-11T21:21:47.781Z,100423.47
2022-12-11T21:24:32.977Z,100418.91
2022-12-11T21:27:18.185Z,100415.75
2022-12-11T21:30:05.049Z,100422.66
2022-12-11T21:32:49.898Z,100428.91
2022-12-11T21:35:35.304Z,100430.69
2022-12-11T21:38:20.503Z,100425.78
2022-12-11T21:41:17.587Z,100426.00
2022-12-11T21:45:25.538Z,100420.38
2022-12-11T21:47:07.172Z,100423.25
2022-12-11T21:49:52.365Z,100417.34
2022-12-11T21:52:38.659Z,100419.81
2022-12-11T21:55:23.859Z,100415.06
2022-12-11T21:58:09.484Z,100424.94
2022-12-11T22:00:54.608Z,100421.78
2022-12-11T22:03:39.681Z,100418.66
2022-12-11T22:06:24.639Z,100433.47
2022-12-11T22:09:12.332Z,100428.69
2022-12-11T22:11:58.788Z,100436.56
2022-12-11T22:14:44.265Z,100437.16
2022-12-11T22:17:29.698Z,100442.47
2022-12-11T22:20:14.681Z,100437.97
2022-12-11T22:22:59.881Z,100445.50
2022-12-11T22:25:45.891Z,100447.34
2022-12-11T22:28:31.193Z,100447.53
2022-12-11T22:31:20.419Z,100442.06
2022-12-11T22:34:05.400Z,100446.44
2022-12-11T22:36:51.047Z,100450.47
2022-12-11T22:39:36.307Z,100445.34
2022-12-11T22:42:21.283Z,100454.47
2022-12-11T22:45:07.140Z,100459.38
2022-12-11T22:47:52.340Z,100453.94
2022-12-11T22:50:39.325Z,100456.31
2022-12-11T22:53:24.440Z,100458.91
2022-12-11T22:56:12.123Z,100455.38
2022-12-11T22:58:57.947Z,100452.91
2022-12-11T23:01:42.948Z,100458.91
2022-12-11T23:04:27.882Z,100457.88
2022-12-11T23:07:12.754Z,100455.38
2022-12-11T23:09:58.298Z,100455.88
2022-12-11T23:12:43.571Z,100456.50
2022-12-11T23:15:28.862Z,100456.50
2022-12-11T23:18:13.878Z,100458.63
2022-12-11T23:20:59.240Z,100462.91
2022-12-11T23:23:44.547Z,100459.75
2022-12-11T23:26:30.374Z,100460.47
2022-12-11T23:29:15.227Z,100472.50
2022-12-11T23:32:00.374Z,100470.34
2022-12-11T23:34:45.483Z,100467.22
2022-12-11T23:37:30.927Z,100462.19
2022-12-11T23:40:16.158Z,100465.22
2022-12-11T23:43:01.304Z,100465.09
2022-12-11T23:45:46.709Z,100468.16
2022-12-11T23:48:31.815Z,100466.19
2022-12-11T23:51:18.795Z,100470.88
2022-12-11T23:54:04.153Z,100473.44
2022-12-11T23:56:49.193Z,100476.84
2022-12-11T23:59:34.316Z,100476.56
